Time;durP1;ratioP1;P1;durP2;ratioP2;P2;SDS_P1;SDS_P2;PMS_P1;PMS_P2;Temp;Humidity;BMP_temperature;BMP_pressure;BME280_temperature;BME280_humidity;BME280_pressure;Samples;Min_cycle;Max_cycle;Signal;HPM_P1;HPM_P2
2022/07/04 00:02:14;;;;;;;12.68;10.85;;;;;;;;;;6091874;23;20692;-59
2022/07/04 00:04:41;;;;;;;11.10;10.02;;;;;;;;;;6091261;23;20030;-59
2022/07/04 00:07:08;;;;;;;;;;;;;;;;;;6092082;23;20026;-45
2022/07/04 00:09:36;;;;;;;13.55;9.80;;;;;;;;;;6091855;23;19921;-49
2022/07/04 00:12:03;;;;;;;12.52;8.85;;;;;;;;;;6091212;23;20038;-48
2022/07/04 00:14:30;;;;;;;14.60;8.98;;;;;;;;;;6092843;23;20069;-52
2022/07/04 00:16:58;;;;;;;12.45;10.55;;;;;;;;;;6090859;23;20503;-50
2022/07/04 00:19:25;;;;;;;11.15;9.63;;;;;;;;;;6092149;23;20026;-50
2022/07/04 00:21:52;;;;;;;17.05;12.05;;;;;;;;;;6090507;23;20531;-61
2022/07/04 00:24:19;;;;;;;16.77;13.38;;;;;;;;;;6091200;23;20050;-59
2022/07/04 00:26:47;;;;;;;18.70;14.65;;;;;;;;;;6091882;23;20093;-57
2022/07/04 00:29:14;;;;;;;15.70;14.10;;;;;;;;;;6091372;23;20081;-58
2022/07/04 00:31:41;;;;;;;19.17;15.30;;;;;;;;;;6091314;23;20053;-58
2022/07/04 00:34:09;;;;;;;15.65;14.15;;;;;;;;;;6091169;23;20057;-59
2022/07/04 00:36:36;;;;;;;18.08;13.55;;;;;;;;;;6090818;23;20511;-59
2022/07/04 00:39:05;;;;;;;12.90;11.55;;;;;;;;;;6090095;23;20022;-60
2022/07/04 00:41:32;;;;;;;13.88;8.38;;;;;;;;;;6090529;23;20022;-67
2022/07/04 00:44:00;;;;;;;10.10;9.10;;;;;;;;;;6091747;23;20093;-60
2022/07/04 00:46:39;;;;;;;16.83;11.23;;;;;;;;;;6091299;23;20053;-61
2022/07/04 00:49:07;;;;;;;16.27;11.98;;;;;;;;;;6089059;23;20086;-60
2022/07/04 00:51:34;;;;;;;;;;;;;;;;;;6091853;23;20026;-60
2022/07/04 00:54:01;;;;;;;12.45;11.27;;;;;;;;;;6091432;23;19924;-60
2022/07/04 00:56:29;;;;;;;;;;;;;;;;;;6092247;23;20083;-60
2022/07/04 00:58:58;;;;;;;12.75;11.32;;;;;;;;;;6090771;23;19921;-60
2022/07/04 01:01:26;;;;;;;13.30;9.50;;;;;;;;;;6091159;23;20031;-60
2022/07/04 01:03:54;;;;;;;15.10;11.27;;;;;;;;;;6090980;23;20101;-60
2022/07/04 01:06:21;;;;;;;12.85;11.55;;;;;;;;;;6090485;23;20046;-60
2022/07/04 01:08:48;;;;;;;13.55;11.75;;;;;;;;;;6092165;23;20077;-60
2022/07/04 01:11:16;;;;;;;;;;;;;;;;;;6091805;23;20026;-60
2022/07/04 01:13:43;;;;;;;16.58;13.02;;;;;;;;;;6091522;23;19932;-60
2022/07/04 01:16:11;;;;;;;11.27;9.73;;;;;;;;;;6090401;23;20034;-60
2022/07/04 01:18:39;;;;;;;9.88;8.80;;;;;;;;;;6091360;23;20622;-64
2022/07/04 01:21:06;;;;;;;15.55;10.80;;;;;;;;;;6091587;23;20475;-64
2022/07/04 01:23:37;;;;;;;15.52;12.35;;;;;;;;;;6091348;23;20404;-64
2022/07/04 01:26:04;;;;;;;16.02;11.52;;;;;;;;;;6091164;23;20077;-64
2022/07/04 01:28:31;;;;;;;12.32;11.02;;;;;;;;;;6091651;23;20038;-65
2022/07/04 01:30:58;;;;;;;14.40;12.35;;;;;;;;;;6091094;23;20747;-64
2022/07/04 01:33:26;;;;;;;15.15;13.63;;;;;;;;;;6090883;23;20033;-64
2022/07/04 01:35:53;;;;;;;22.42;14.70;;;;;;;;;;6091724;23;20030;-58
2022/07/04 01:38:21;;;;;;;19.48;14.10;;;;;;;;;;6092068;23;20019;-65
2022/07/04 01:40:48;;;;;;;10.40;9.32;;;;;;;;;;6091037;23;20079;-67
2022/07/04 01:43:16;;;;;;;14.40;12.30;;;;;;;;;;6090578;23;20443;-75
2022/07/04 01:45:43;;;;;;;22.80;13.73;;;;;;;;;;6091490;23;20050;-76
2022/07/04 01:48:12;;;;;;;12.32;7.43;;;;;;;;;;6088579;23;20033;-71
2022/07/04 01:50:39;;;;;;;10.15;6.18;;;;;;;;;;6091863;23;20026;-70
2022/07/04 01:53:07;;;;;;;6.10;5.50;;;;;;;;;;6089557;23;20495;-55
2022/07/04 01:55:34;;;;;;;7.13;5.38;;;;;;;;;;6091247;23;20023;-64
2022/07/04 01:58:01;;;;;;;18.63;5.15;;;;;;;;;;6090086;23;20068;-64
2022/07/04 02:03:14;;;;;;;5.53;3.83;;;;;;;;;;6089957;23;20027;-65
2022/07/04 02:05:43;;;;;;;5.93;3.92;;;;;;;;;;6091329;23;20022;-66
2022/07/04 02:08:10;;;;;;;7.97;4.40;;;;;;;;;;6089378;23;20027;-62
2022/07/04 02:10:38;;;;;;;7.18;4.10;;;;;;;;;;6091532;23;20054;-62
2022/07/04 02:13:07;;;;;;;5.13;3.90;;;;;;;;;;6090304;23;20019;-62
2022/07/04 02:15:35;;;;;;;12.32;4.63;;;;;;;;;;6090492;23;20026;-62
2022/07/04 02:18:03;;;;;;;9.95;4.40;;;;;;;;;;6089363;23;20030;-63
2022/07/04 02:20:31;;;;;;;6.97;4.07;;;;;;;;;;6091189;23;20022;-63
2022/07/04 02:22:58;;;;;;;11.95;3.78;;;;;;;;;;6089831;23;20026;-59
2022/07/04 02:25:26;;;;;;;11.82;4.75;;;;;;;;;;6091316;23;20026;-58
2022/07/04 02:27:53;;;;;;;7.28;4.07;;;;;;;;;;6090736;23;20026;-63
2022/07/04 02:30:20;;;;;;;4.43;3.95;;;;;;;;;;6091065;23;20070;-63
2022/07/04 02:32:47;;;;;;;14.18;4.80;;;;;;;;;;6090405;23;20026;-63
2022/07/04 02:35:15;;;;;;;8.20;4.07;;;;;;;;;;6090924;23;20026;-63
2022/07/04 02:37:42;;;;;;;7.80;4.25;;;;;;;;;;6089288;23;20026;-63
2022/07/04 02:40:10;;;;;;;9.25;4.40;;;;;;;;;;6090874;23;20030;-64
2022/07/04 02:42:37;;;;;;;;;;;;;;;;;;6090885;23;20022;-52
2022/07/04 02:45:04;;;;;;;14.02;4.45;;;;;;;;;;6090695;23;19921;-51
2022/07/04 02:47:32;;;;;;;22.30;5.63;;;;;;;;;;6091108;23;20352;-72
2022/07/04 02:50:02;;;;;;;10.52;4.43;;;;;;;;;;6090189;23;20022;-72
2022/07/04 02:52:29;;;;;;;7.88;3.97;;;;;;;;;;6090566;23;20057;-72
2022/07/04 02:54:57;;;;;;;;;;;;;;;;;;6091289;23;20022;-73
2022/07/04 02:57:24;;;;;;;4.50;3.45;;;;;;;;;;6089612;23;20291;-72
2022/07/04 02:59:51;;;;;;;6.43;3.90;;;;;;;;;;6090273;23;20030;-72
2022/07/04 03:02:19;;;;;;;8.70;4.03;;;;;;;;;;6089723;23;20030;-72
2022/07/04 03:04:46;;;;;;;4.93;3.53;;;;;;;;;;6090963;23;20023;-52
2022/07/04 03:07:13;;;;;;;;;;;;;;;;;;6090689;23;20133;-51
2022/07/04 03:09:41;;;;;;;4.65;3.42;;;;;;;;;;6090064;23;20674;-52
2022/07/04 03:12:08;;;;;;;5.20;3.50;;;;;;;;;;6088358;23;20030;-54
2022/07/04 03:14:35;;;;;;;5.50;4.15;;;;;;;;;;6090943;23;20030;-54
2022/07/04 03:17:03;;;;;;;6.15;3.65;;;;;;;;;;6089083;23;20031;-52
2022/07/04 03:19:30;;;;;;;7.82;3.78;;;;;;;;;;6091294;23;20046;-52
2022/07/04 03:21:57;;;;;;;9.77;4.00;;;;;;;;;;6090530;23;20038;-60
2022/07/04 03:24:25;;;;;;;11.07;4.00;;;;;;;;;;6090786;23;20090;-60
2022/07/04 03:26:52;;;;;;;6.47;3.83;;;;;;;;;;6089522;23;20026;-60
2022/07/04 03:29:19;;;;;;;4.68;3.88;;;;;;;;;;6089767;23;20026;-60
2022/07/04 03:31:46;;;;;;;5.57;3.63;;;;;;;;;;6090995;23;20026;-59
2022/07/04 03:34:13;;;;;;;7.22;3.83;;;;;;;;;;6091030;23;20026;-62
2022/07/04 03:36:41;;;;;;;9.18;3.75;;;;;;;;;;6089647;23;20468;-59
2022/07/04 03:39:08;;;;;;;;;;;;;;;;;;6091386;23;20612;-54
2022/07/04 03:41:36;;;;;;;5.97;3.85;;;;;;;;;;6089731;23;19921;-66
2022/07/04 03:44:03;;;;;;;;;;;;;;;;;;6090588;23;20046;-74
2022/07/04 03:46:30;;;;;;;6.20;3.95;;;;;;;;;;6090780;23;20672;-74
2022/07/04 03:48:59;;;;;;;8.00;4.53;;;;;;;;;;6089338;23;20565;-73
2022/07/04 03:51:26;;;;;;;7.45;4.07;;;;;;;;;;6091156;23;20408;-73
2022/07/04 03:53:53;;;;;;;;;;;;;;;;;;6091469;23;20239;-75
2022/07/04 03:56:20;;;;;;;9.07;4.47;;;;;;;;;;6090300;23;19917;-74
2022/07/04 03:58:50;;;;;;;6.55;4.30;;;;;;;;;;6090341;23;20468;-58
2022/07/04 04:01:18;;;;;;;10.43;4.53;;;;;;;;;;6090618;23;20137;-58
2022/07/04 04:06:32;;;;;;;7.72;4.20;;;;;;;;;;6092946;23;20078;-74
2022/07/04 04:09:00;;;;;;;7.32;3.60;;;;;;;;;;6090678;23;20030;-73
2022/07/04 04:11:31;;;;;;;7.43;4.50;;;;;;;;;;6092613;23;20058;-74
2022/07/04 04:13:58;;;;;;;7.03;4.10;;;;;;;;;;6092754;23;20030;-73
2022/07/04 04:16:25;;;;;;;6.78;4.20;;;;;;;;;;6092931;23;20097;-73
2022/07/04 04:18:53;;;;;;;6.38;3.72;;;;;;;;;;6091386;23;20364;-67
2022/07/04 04:21:20;;;;;;;6.32;3.58;;;;;;;;;;6092229;23;20050;-60
2022/07/04 04:23:47;;;;;;;6.55;4.53;;;;;;;;;;6092001;23;20401;-60
2022/07/04 04:26:15;;;;;;;4.85;3.60;;;;;;;;;;6090620;23;20031;-60
2022/07/04 04:28:43;;;;;;;5.18;3.53;;;;;;;;;;6092447;23;20026;-61
2022/07/04 04:31:10;;;;;;;8.93;3.50;;;;;;;;;;6092364;23;20022;-60
2022/07/04 04:33:37;;;;;;;6.68;3.80;;;;;;;;;;6092109;23;20034;-59
2022/07/04 04:36:05;;;;;;;8.95;4.18;;;;;;;;;;6092512;23;20023;-56
2022/07/04 04:38:32;;;;;;;8.20;4.28;;;;;;;;;;6091824;23;20456;-73
2022/07/04 04:40:59;;;;;;;6.22;3.60;;;;;;;;;;6091811;23;20030;-55
2022/07/04 04:43:27;;;;;;;6.20;3.42;;;;;;;;;;6091751;23;20023;-56
2022/07/04 04:45:54;;;;;;;9.85;3.80;;;;;;;;;;6092546;23;20058;-56
2022/07/04 04:48:21;;;;;;;4.82;3.85;;;;;;;;;;6089457;23;20464;-56
2022/07/04 04:50:49;;;;;;;7.78;3.53;;;;;;;;;;6091808;23;20515;-54
2022/07/04 04:53:16;;;;;;;5.05;3.05;;;;;;;;;;6092047;23;20023;-53
2022/07/04 04:55:43;;;;;;;6.78;3.03;;;;;;;;;;6091323;23;20487;-60
2022/07/04 04:58:10;;;;;;;6.15;3.10;;;;;;;;;;6092276;23;20019;-58
2022/07/04 05:00:38;;;;;;;3.25;2.40;;;;;;;;;;6091515;23;20030;-62
2022/07/04 05:03:25;;;;;;;3.40;3.00;;;;;;;;;;6089453;23;20328;-61
2022/07/04 05:05:53;;;;;;;7.63;2.70;;;;;;;;;;6092021;23;20034;-61
2022/07/04 05:08:20;;;;;;;6.28;3.00;;;;;;;;;;6090697;23;20578;-61
2022/07/04 05:10:47;;;;;;;5.88;3.42;;;;;;;;;;6089401;23;20027;-61
2022/07/04 05:13:15;;;;;;;5.13;3.35;;;;;;;;;;6091273;23;20026;-61
2022/07/04 05:15:42;;;;;;;4.47;2.60;;;;;;;;;;6090729;23;20031;-60
2022/07/04 05:18:09;;;;;;;3.85;2.90;;;;;;;;;;6092005;23;20030;-59
2022/07/04 05:20:37;;;;;;;4.93;2.97;;;;;;;;;;6090712;23;20073;-59
2022/07/04 05:23:04;;;;;;;5.28;2.78;;;;;;;;;;6090479;23;20027;-60
2022/07/04 05:25:32;;;;;;;9.55;2.92;;;;;;;;;;6090915;23;20034;-60
2022/07/04 05:27:59;;;;;;;5.57;2.75;;;;;;;;;;6091160;23;20026;-59
2022/07/04 05:30:26;;;;;;;5.35;3.05;;;;;;;;;;6091049;23;20022;-59
2022/07/04 05:32:54;;;;;;;4.90;2.65;;;;;;;;;;6091620;23;20030;-59
2022/07/04 05:35:21;;;;;;;7.15;3.17;;;;;;;;;;6091996;23;20030;-67
2022/07/04 05:37:49;;;;;;;5.03;2.92;;;;;;;;;;6091692;23;20027;-66
2022/07/04 05:40:16;;;;;;;;;;;;;;;;;;6090821;23;20026;-66
2022/07/04 05:42:44;;;;;;;3.45;2.15;;;;;;;;;;6091052;23;19921;-66
2022/07/04 05:45:12;;;;;;;6.93;2.15;;;;;;;;;;6090854;23;20030;-65
2022/07/04 05:47:44;;;;;;;5.93;2.40;;;;;;;;;;6089464;23;20027;-65
2022/07/04 05:50:12;;;;;;;4.00;1.80;;;;;;;;;;6091098;23;20026;-66
2022/07/04 05:52:39;;;;;;;4.07;1.90;;;;;;;;;;6092062;23;20046;-60
2022/07/04 05:55:07;;;;;;;2.60;1.65;;;;;;;;;;6090919;23;20030;-61
2022/07/04 05:57:34;;;;;;;5.03;2.08;;;;;;;;;;6090327;23;20090;-66
2022/07/04 06:00:03;;;;;;;4.80;2.40;;;;;;;;;;6091793;23;20023;-66
2022/07/04 06:02:30;;;;;;;5.50;2.10;;;;;;;;;;6092407;23;20033;-66
2022/07/04 06:04:58;;;;;;;5.53;2.00;;;;;;;;;;6092891;23;20026;-66
2022/07/04 06:07:25;;;;;;;3.17;2.10;;;;;;;;;;6090642;23;20551;-67
2022/07/04 06:09:52;;;;;;;4.80;2.22;;;;;;;;;;6091898;23;20050;-67
2022/07/04 06:12:20;;;;;;;7.45;1.98;;;;;;;;;;6090389;23;20027;-59
2022/07/04 06:14:47;;;;;;;8.15;2.15;;;;;;;;;;6091886;23;20022;-62
2022/07/04 06:17:14;;;;;;;5.97;2.33;;;;;;;;;;6090821;23;20060;-74
2022/07/04 06:19:41;;;;;;;3.45;1.55;;;;;;;;;;6091994;23;20777;-75
2022/07/04 09:11:12;;;;;;;7.45;1.73;;;;;;;;;;6178428;22;1547590;-58
2022/07/04 09:13:39;;;;;;;7.50;1.20;;;;;;;;;;6210729;23;20469;-58
2022/07/04 09:16:07;;;;;;;9.02;1.50;;;;;;;;;;6211733;23;20132;-58
2022/07/04 09:18:35;;;;;;;2.75;1.30;;;;;;;;;;6211681;23;20082;-58
2022/07/04 09:21:06;;;;;;;7.82;1.40;;;;;;;;;;6211459;23;20020;-59
2022/07/04 09:23:35;;;;;;;4.32;0.98;;;;;;;;;;6211674;23;20021;-57
2022/07/04 09:26:16;;;;;;;4.82;1.30;;;;;;;;;;6211195;23;20021;-53
2022/07/04 09:28:56;;;;;;;4.45;1.35;;;;;;;;;;6210463;23;20024;-53
2022/07/04 09:31:25;;;;;;;9.57;1.25;;;;;;;;;;6212074;23;20079;-50
2022/07/04 09:33:57;;;;;;;4.45;1.20;;;;;;;;;;6211085;23;20596;-53
2022/07/04 09:36:26;;;;;;;4.00;1.23;;;;;;;;;;6211146;23;20494;-53
2022/07/04 09:39:06;;;;;;;4.45;1.13;;;;;;;;;;6211446;23;20071;-54
2022/07/04 09:41:50;;;;;;;6.95;1.33;;;;;;;;;;6211316;23;20067;-50
2022/07/04 09:44:17;;;;;;;5.22;1.30;;;;;;;;;;6211098;23;20020;-60
2022/07/04 09:46:44;;;;;;;5.45;1.25;;;;;;;;;;6211480;23;20021;-60
2022/07/04 09:49:12;;;;;;;5.05;1.30;;;;;;;;;;6210903;23;20028;-60
2022/07/04 09:51:43;;;;;;;2.90;0.98;;;;;;;;;;6211392;23;20028;-60
2022/07/04 09:54:29;;;;;;;5.97;1.30;;;;;;;;;;6210392;23;20488;-60
2022/07/04 09:56:59;;;;;;;2.97;0.98;;;;;;;;;;6211201;23;20540;-60
2022/07/04 09:59:27;;;;;;;6.45;1.25;;;;;;;;;;6211405;23;20358;-60
2022/07/04 10:02:11;;;;;;;5.88;1.25;;;;;;;;;;6211202;23;20013;-61
2022/07/04 10:04:43;;;;;;;5.22;1.13;;;;;;;;;;6210607;23;20024;-57
2022/07/04 10:07:10;;;;;;;3.65;1.10;;;;;;;;;;6211102;23;20025;-58
2022/07/04 10:09:37;;;;;;;7.13;1.40;;;;;;;;;;6196734;23;20076;-56
2022/07/04 10:12:05;;;;;;;;;;;;;;;;;;6181196;23;20017;-60
2022/07/04 10:14:32;;;;;;;3.88;1.05;;;;;;;;;;6179882;23;19955;-58
2022/07/04 10:16:59;;;;;;;4.97;1.27;;;;;;;;;;6181089;23;20064;-59
2022/07/04 10:19:26;;;;;;;;;;;;;;;;;;6181780;23;20028;-61
2022/07/04 10:21:54;;;;;;;2.80;1.23;;;;;;;;;;6180774;23;19916;-50
2022/07/04 10:24:21;;;;;;;;;;;;;;;;;;6181136;23;20097;-64
2022/07/04 10:26:48;;;;;;;3.13;1.10;;;;;;;;;;6181607;23;19924;-64
2022/07/04 10:29:17;;;;;;;4.80;1.40;;;;;;;;;;6180340;23;20025;-64
2022/07/04 10:31:44;;;;;;;6.72;1.20;;;;;;;;;;6181160;23;20021;-63
2022/07/04 10:34:11;;;;;;;3.33;1.10;;;;;;;;;;6180136;23;20358;-64
2022/07/04 10:36:39;;;;;;;5.00;1.00;;;;;;;;;;6181087;23;20398;-63
2022/07/04 10:39:06;;;;;;;4.38;1.20;;;;;;;;;;6179973;23;20052;-53
2022/07/04 10:41:34;;;;;;;3.67;0.95;;;;;;;;;;6181516;23;20398;-63
2022/07/04 10:44:02;;;;;;;5.15;1.15;;;;;;;;;;6179796;23;20488;-59
2022/07/04 10:46:33;;;;;;;2.63;1.00;;;;;;;;;;6180770;23;20504;-58
2022/07/04 10:49:03;;;;;;;9.40;1.35;;;;;;;;;;6179994;23;20394;-58
2022/07/04 10:51:33;;;;;;;4.32;1.55;;;;;;;;;;6180898;23;20028;-59
2022/07/04 10:54:02;;;;;;;2.83;1.05;;;;;;;;;;6153947;23;20477;-58
2022/07/04 10:56:29;;;;;;;4.38;1.42;;;;;;;;;;6180805;23;20072;-58
2022/07/04 10:59:00;;;;;;;4.35;1.30;;;;;;;;;;6180430;23;20036;-59
2022/07/04 11:01:27;;;;;;;3.13;0.95;;;;;;;;;;6180866;23;20028;-64
2022/07/04 11:03:55;;;;;;;2.80;1.00;;;;;;;;;;6180159;23;20025;-65
2022/07/04 11:06:43;;;;;;;3.17;1.10;;;;;;;;;;6180821;23;20346;-63
2022/07/04 11:09:17;;;;;;;3.20;1.05;;;;;;;;;;6179836;23;20083;-63
2022/07/04 11:11:57;;;;;;;3.22;1.00;;;;;;;;;;6180381;23;20075;-64
2022/07/04 11:14:31;;;;;;;3.10;1.23;;;;;;;;;;6180504;23;20020;-63
2022/07/04 11:16:59;;;;;;;10.10;1.63;;;;;;;;;;6180515;23;20367;-60
2022/07/04 11:19:27;;;;;;;6.65;1.50;;;;;;;;;;6180368;23;20052;-60
2022/07/04 11:21:58;;;;;;;3.65;1.38;;;;;;;;;;6180392;23;20086;-59
2022/07/04 11:24:26;;;;;;;3.38;1.20;;;;;;;;;;6180320;23;20040;-59
2022/07/04 11:26:54;;;;;;;4.05;1.30;;;;;;;;;;6180652;23;20021;-59
2022/07/04 11:29:21;;;;;;;4.88;1.10;;;;;;;;;;6154467;23;20032;-59
2022/07/04 11:31:49;;;;;;;5.93;1.05;;;;;;;;;;6180768;23;20021;-59
2022/07/04 11:34:17;;;;;;;5.68;1.00;;;;;;;;;;6179633;23;20025;-59
2022/07/04 11:36:45;;;;;;;4.38;1.13;;;;;;;;;;6180773;23;20104;-59
2022/07/04 11:39:14;;;;;;;2.42;1.13;;;;;;;;;;6179929;23;20036;-59
2022/07/04 11:47:21;;;;;;;3.63;0.70;;;;;;;;;;6180381;23;20025;-59
2022/07/04 11:49:50;;;;;;;2.83;0.93;;;;;;;;;;6180066;23;20497;-59
2022/07/04 11:52:18;;;;;;;6.97;1.20;;;;;;;;;;6180434;23;20087;-59
2022/07/04 11:55:06;;;;;;;6.70;1.42;;;;;;;;;;6179139;23;20025;-60
2022/07/04 11:57:43;;;;;;;4.38;1.25;;;;;;;;;;6180889;23;20029;-65
2022/07/04 12:00:12;;;;;;;3.30;1.23;;;;;;;;;;6176834;23;20025;-59
2022/07/04 12:02:44;;;;;;;3.47;1.13;;;;;;;;;;6180344;23;20048;-59
2022/07/04 12:05:12;;;;;;;5.35;1.42;;;;;;;;;;6179467;23;20500;-59
2022/07/04 12:07:41;;;;;;;6.95;1.20;;;;;;;;;;6180913;23;20079;-58
2022/07/04 12:10:09;;;;;;;4.28;1.23;;;;;;;;;;6180434;23;20049;-59
2022/07/04 12:12:50;;;;;;;3.58;1.10;;;;;;;;;;6182593;23;20536;-59
2022/07/04 12:15:18;;;;;;;5.03;1.45;;;;;;;;;;6181203;23;20033;-58
2022/07/04 12:17:45;;;;;;;1.85;0.80;;;;;;;;;;6182772;23;20017;-50
2022/07/04 12:20:19;;;;;;;3.33;1.20;;;;;;;;;;6181700;23;20025;-47
2022/07/04 12:22:56;;;;;;;3.47;1.30;;;;;;;;;;6182250;23;20471;-47
2022/07/04 12:25:28;;;;;;;4.50;1.20;;;;;;;;;;6182165;23;20025;-51
2022/07/04 12:28:06;;;;;;;3.80;0.90;;;;;;;;;;6182365;23;20033;-53
2022/07/04 12:30:34;;;;;;;1.37;1.07;;;;;;;;;;6182415;23;20021;-52
2022/07/04 12:33:05;;;;;;;2.00;0.95;;;;;;;;;;6181123;23;20379;-58
2022/07/04 12:35:41;;;;;;;1.15;0.70;;;;;;;;;;6181787;23;20067;-60
2022/07/04 12:38:13;;;;;;;5.07;1.45;;;;;;;;;;6181624;23;20339;-50
2022/07/04 12:40:51;;;;;;;3.88;1.38;;;;;;;;;;6182264;23;20025;-51
2022/07/04 12:43:18;;;;;;;2.70;1.10;;;;;;;;;;6181645;23;20032;-51
2022/07/04 12:45:49;;;;;;;3.10;1.20;;;;;;;;;;6182001;23;20021;-52
2022/07/04 12:48:18;;;;;;;5.68;1.20;;;;;;;;;;6181478;23;20032;-53
2022/07/04 12:50:45;;;;;;;4.53;1.42;;;;;;;;;;6181897;23;20084;-50
2022/07/04 12:53:13;;;;;;;3.45;1.38;;;;;;;;;;6181439;23;20029;-58
2022/07/04 12:55:44;;;;;;;4.68;2.03;;;;;;;;;;6155445;23;20032;-58
2022/07/04 12:58:11;;;;;;;3.25;1.02;;;;;;;;;;6181206;23;20024;-59
2022/07/04 13:00:39;;;;;;;3.90;0.93;;;;;;;;;;6182205;23;20032;-59
2022/07/04 13:03:06;;;;;;;;;;;;;;;;;;6182190;23;20075;-59
2022/07/04 13:05:34;;;;;;;3.67;1.00;;;;;;;;;;6181567;23;20011;-59
2022/07/04 13:08:02;;;;;;;1.60;0.82;;;;;;;;;;6181642;23;20048;-59
2022/07/04 13:10:30;;;;;;;5.90;0.95;;;;;;;;;;6181146;23;20025;-59
2022/07/04 13:12:57;;;;;;;2.25;0.70;;;;;;;;;;6181453;23;20540;-50
2022/07/04 13:15:25;;;;;;;2.90;1.02;;;;;;;;;;6180962;23;20025;-49
2022/07/04 13:17:52;;;;;;;1.98;1.02;;;;;;;;;;6181386;23;20083;-49
2022/07/04 13:20:19;;;;;;;2.00;1.08;;;;;;;;;;6180692;23;20076;-49
2022/07/04 13:22:47;;;;;;;2.78;0.70;;;;;;;;;;6182229;23;20076;-47
2022/07/04 13:25:14;;;;;;;2.67;1.08;;;;;;;;;;6180785;23;20025;-53
2022/07/04 13:27:42;;;;;;;2.90;1.20;;;;;;;;;;6181387;23;20028;-53
2022/07/04 13:30:09;;;;;;;;;;;;;;;;;;6181726;23;20025;-59
2022/07/04 13:32:37;;;;;;;11.02;1.42;;;;;;;;;;6182034;23;19939;-59
2022/07/04 13:35:10;;;;;;;3.00;1.20;;;;;;;;;;6180515;23;20545;-51
2022/07/04 13:37:42;;;;;;;3.40;1.00;;;;;;;;;;6181621;23;20025;-53
2022/07/04 13:40:12;;;;;;;2.33;0.93;;;;;;;;;;6180812;23;20462;-50
2022/07/04 13:42:58;;;;;;;;;;;;;;;;;;6182289;23;20047;-52
2022/07/04 13:45:26;;;;;;;5.55;1.08;;;;;;;;;;6180454;23;20313;-53
2022/07/04 13:47:54;;;;;;;4.55;0.98;;;;;;;;;;6181470;23;20086;-54
2022/07/04 13:50:22;;;;;;;1.52;0.80;;;;;;;;;;6180970;23;20021;-58
2022/07/04 13:52:50;;;;;;;4.90;1.38;;;;;;;;;;6181617;23;20033;-53
2022/07/04 13:55:18;;;;;;;4.72;1.17;;;;;;;;;;6180552;23;20060;-53
2022/07/04 13:57:45;;;;;;;4.38;1.20;;;;;;;;;;6181654;23;20044;-53
2022/07/04 14:00:12;;;;;;;;;;;;;;;;;;6181423;23;20021;-51
2022/07/04 14:02:39;;;;;;;4.07;1.13;;;;;;;;;;6181190;23;19916;-51
2022/07/04 14:05:07;;;;;;;3.97;1.00;;;;;;;;;;6180715;23;20017;-53
2022/07/04 14:07:34;;;;;;;;;;;;;;;;;;6181439;23;20486;-52
2022/07/04 14:10:02;;;;;;;3.55;1.00;;;;;;;;;;6180587;23;19916;-59
2022/07/04 14:12:29;;;;;;;1.75;0.85;;;;;;;;;;6181696;23;20075;-60
2022/07/04 14:14:56;;;;;;;3.03;0.90;;;;;;;;;;6180205;23;20025;-59
2022/07/04 14:17:23;;;;;;;2.53;0.93;;;;;;;;;;6181513;23;20088;-60
2022/07/04 14:20:07;;;;;;;1.90;0.90;;;;;;;;;;6180109;23;20017;-59
2022/07/04 14:22:35;;;;;;;4.90;1.05;;;;;;;;;;6180843;23;20540;-59
2022/07/04 14:25:10;;;;;;;3.70;0.85;;;;;;;;;;6156048;23;20021;-59
2022/07/04 14:27:38;;;;;;;;;;;;;;;;;;6181533;23;20025;-63
2022/07/04 14:30:06;;;;;;;4.78;1.00;;;;;;;;;;6180701;23;19943;-58
2022/07/04 14:32:33;;;;;;;2.88;0.77;;;;;;;;;;6180829;23;20021;-64
2022/07/04 14:35:00;;;;;;;;;;;;;;;;;;6180373;23;20025;-63
2022/07/04 14:37:28;;;;;;;2.40;0.90;;;;;;;;;;6180976;23;19920;-64
2022/07/04 14:39:55;;;;;;;2.33;0.93;;;;;;;;;;6180424;23;20588;-64
2022/07/04 14:42:22;;;;;;;;;;;;;;;;;;6181483;23;20036;-63
2022/07/04 14:44:49;;;;;;;2.10;0.88;;;;;;;;;;6180485;23;19920;-64
2022/07/04 14:47:17;;;;;;;3.70;0.80;;;;;;;;;;6180859;23;20154;-50
2022/07/04 14:49:45;;;;;;;0.70;0.70;;;;;;;;;;6179997;23;20025;-59
2022/07/04 14:52:12;;;;;;;3.28;0.90;;;;;;;;;;6180729;23;20071;-59
2022/07/04 14:54:39;;;;;;;5.20;1.02;;;;;;;;;;6180555;23;20036;-58
2022/07/04 14:57:07;;;;;;;4.45;0.95;;;;;;;;;;6180478;23;20021;-59
2022/07/04 14:59:37;;;;;;;2.28;0.70;;;;;;;;;;6180541;23;20021;-59
2022/07/04 15:02:05;;;;;;;2.17;0.75;;;;;;;;;;6180862;23;20025;-58
2022/07/04 15:04:32;;;;;;;3.08;1.00;;;;;;;;;;6179963;23;20021;-58
2022/07/04 15:07:00;;;;;;;2.15;1.17;;;;;;;;;;6180435;23;20031;-53
2022/07/04 15:09:27;;;;;;;1.83;0.90;;;;;;;;;;6180614;23;20021;-59
2022/07/04 15:11:54;;;;;;;;;;;;;;;;;;6181110;23;20021;-59
2022/07/04 15:14:22;;;;;;;2.45;0.90;;;;;;;;;;6179904;23;19920;-59
2022/07/04 15:16:49;;;;;;;2.70;1.20;;;;;;;;;;6180713;23;20063;-59
2022/07/04 15:19:18;;;;;;;2.75;0.98;;;;;;;;;;6179896;23;20559;-59
2022/07/04 15:24:32;;;;;;;3.88;1.13;;;;;;;;;;6180243;23;20025;-59
2022/07/04 15:26:59;;;;;;;2.20;1.00;;;;;;;;;;6180200;23;20025;-59
2022/07/04 15:29:26;;;;;;;5.25;1.88;;;;;;;;;;6180544;23;20591;-59
2022/07/04 15:31:54;;;;;;;;;;;;;;;;;;6181553;23;20025;-59
2022/07/04 15:34:21;;;;;;;3.17;1.00;;;;;;;;;;6179717;23;19971;-59
2022/07/04 15:36:48;;;;;;;4.50;1.20;;;;;;;;;;6180663;23;20017;-59
2022/07/04 15:39:16;;;;;;;2.15;1.00;;;;;;;;;;6180311;23;20028;-58
2022/07/04 15:41:44;;;;;;;3.72;1.08;;;;;;;;;;6180812;23;20049;-58
2022/07/04 15:44:12;;;;;;;5.68;1.45;;;;;;;;;;6180346;23;20021;-59
2022/07/04 15:49:25;;;;;;;5.60;1.00;;;;;;;;;;6181956;23;20308;-64
2022/07/04 15:51:52;;;;;;;4.35;0.90;;;;;;;;;;6182683;23;20083;-65
2022/07/04 15:54:20;;;;;;;5.95;1.50;;;;;;;;;;6182204;23;20068;-65
2022/07/04 15:56:47;;;;;;;3.35;1.00;;;;;;;;;;6182031;23;20025;-64
2022/07/04 15:59:15;;;;;;;2.70;0.85;;;;;;;;;;6181897;23;20094;-64
2022/07/04 16:01:42;;;;;;;3.70;1.30;;;;;;;;;;6182887;23;20025;-64
2022/07/04 16:04:10;;;;;;;5.53;1.30;;;;;;;;;;6182179;23;20024;-53
2022/07/04 16:06:39;;;;;;;;;;;;;;;;;;6183287;23;20017;-60
2022/07/04 16:09:07;;;;;;;4.20;1.00;;;;;;;;;;6181802;23;19920;-59
2022/07/04 16:11:35;;;;;;;4.05;1.20;;;;;;;;;;6181977;23;20025;-59
2022/07/04 16:14:02;;;;;;;4.22;1.00;;;;;;;;;;6181835;23;20029;-60
2022/07/04 16:16:30;;;;;;;3.70;1.30;;;;;;;;;;6182411;23;20025;-59
2022/07/04 16:18:57;;;;;;;3.05;1.15;;;;;;;;;;6181833;23;20021;-59
2022/07/04 16:21:25;;;;;;;4.20;1.23;;;;;;;;;;6182132;23;20083;-59
2022/07/04 16:23:52;;;;;;;7.03;1.50;;;;;;;;;;6182301;23;20029;-59
2022/07/04 16:26:20;;;;;;;6.72;1.88;;;;;;;;;;6182178;23;20099;-59
2022/07/04 16:28:48;;;;;;;7.75;1.13;;;;;;;;;;6182496;23;20137;-59
2022/07/04 16:31:17;;;;;;;4.22;1.25;;;;;;;;;;6181648;23;20025;-59
2022/07/04 16:33:45;;;;;;;3.33;1.20;;;;;;;;;;6182188;23;20087;-59
2022/07/04 16:36:13;;;;;;;7.28;1.42;;;;;;;;;;6181343;23;20025;-59
2022/07/04 16:38:40;;;;;;;3.80;1.20;;;;;;;;;;6182293;23;20025;-59
2022/07/04 16:41:07;;;;;;;4.68;1.25;;;;;;;;;;6181256;23;20048;-63
2022/07/04 16:43:36;;;;;;;3.92;1.30;;;;;;;;;;6182366;23;20029;-66
2022/07/04 16:46:04;;;;;;;4.00;1.20;;;;;;;;;;6181617;23;20113;-58
2022/07/04 16:48:31;;;;;;;2.53;1.30;;;;;;;;;;6182004;23;20112;-58
2022/07/04 16:50:59;;;;;;;4.80;1.50;;;;;;;;;;6181531;23;20029;-59
2022/07/04 16:53:26;;;;;;;5.70;1.63;;;;;;;;;;6181748;23;20116;-58
2022/07/04 16:55:53;;;;;;;3.42;1.23;;;;;;;;;;6181495;23;20047;-58
2022/07/04 16:58:20;;;;;;;6.55;1.40;;;;;;;;;;6181784;23;20642;-58
2022/07/04 17:00:48;;;;;;;5.68;1.20;;;;;;;;;;6181271;23;20542;-51
2022/07/04 17:03:15;;;;;;;;;;;;;;;;;;6182099;23;20032;-66
2022/07/04 17:05:43;;;;;;;6.35;1.70;;;;;;;;;;6180694;23;19951;-66
2022/07/04 17:08:10;;;;;;;3.78;1.17;;;;;;;;;;6181524;23;20406;-66
2022/07/04 17:10:37;;;;;;;;;;;;;;;;;;6181687;23;20025;-67
2022/07/04 17:13:05;;;;;;;7.03;1.17;;;;;;;;;;6181640;23;19970;-66
2022/07/04 17:15:38;;;;;;;3.00;0.93;;;;;;;;;;6181388;23;20079;-65
2022/07/04 17:18:06;;;;;;;5.63;1.35;;;;;;;;;;6181051;23;20489;-66
2022/07/04 17:20:38;;;;;;;3.95;0.98;;;;;;;;;;6181519;23;20029;-58
2022/07/04 17:23:05;;;;;;;5.25;1.17;;;;;;;;;;6181839;23;20017;-59
2022/07/04 17:25:32;;;;;;;4.70;1.25;;;;;;;;;;6181046;23;20041;-59
2022/07/04 17:28:01;;;;;;;5.53;1.45;;;;;;;;;;6181413;23;20387;-58
2022/07/04 17:30:29;;;;;;;11.23;1.67;;;;;;;;;;6180784;23;20028;-59
2022/07/04 17:32:56;;;;;;;8.60;1.63;;;;;;;;;;6181698;23;20025;-59
2022/07/04 17:35:23;;;;;;;7.40;1.35;;;;;;;;;;6181152;23;20406;-58
2022/07/04 17:37:51;;;;;;;7.68;1.58;;;;;;;;;;6181717;23;20083;-63
2022/07/04 17:40:18;;;;;;;11.98;1.60;;;;;;;;;;6180585;23;20029;-65
2022/07/04 17:43:05;;;;;;;8.57;1.77;;;;;;;;;;6181314;23;20336;-51
2022/07/04 17:45:41;;;;;;;5.93;1.60;;;;;;;;;;6181155;23;20021;-52
2022/07/04 17:48:08;;;;;;;6.97;1.70;;;;;;;;;;6181354;23;20095;-51
2022/07/04 17:50:36;;;;;;;9.00;1.80;;;;;;;;;;6180925;23;20032;-50
2022/07/04 17:53:03;;;;;;;5.57;2.00;;;;;;;;;;6180548;23;20549;-52
2022/07/04 17:55:30;;;;;;;8.02;2.10;;;;;;;;;;6180677;23;20031;-52
2022/07/04 17:57:58;;;;;;;8.07;1.90;;;;;;;;;;6180996;23;20021;-62
2022/07/04 18:00:25;;;;;;;11.40;2.20;;;;;;;;;;6181193;23;20036;-72
2022/07/04 18:02:52;;;;;;;16.73;2.53;;;;;;;;;;6181902;23;20017;-75